Time;durP1;ratioP1;P1;durP2;ratioP2;P2;SDS_P1;SDS_P2;PMS_P1;PMS_P2;Temp;Humidity;BMP_temperature;BMP_pressure;BME280_temperature;BME280_humidity;BME280_pressure;Samples;Min_cycle;Max_cycle;Signal;HPM_P1;HPM_P2
2020/12/14 00:01:53;;;;;;;7.60;4.32;;;;;;;5.53;90.96;100413.06;4986715;28;20044;-85
2020/12/14 00:04:19;;;;;;;10.55;4.40;;;;;;;5.53;91.25;100401.56;5003889;28;20038;-85
2020/12/14 00:06:49;;;;;;;8.32;4.50;;;;;;;5.53;91.46;100405.06;4969651;28;20038;-84
2020/12/14 00:09:15;;;;;;;9.40;4.15;;;;;;;5.52;91.54;100400.72;5005576;28;20030;-86
2020/12/14 00:11:40;;;;;;;9.75;4.75;;;;;;;5.52;91.90;100395.38;4973274;28;20037;-83
2020/12/14 00:14:06;;;;;;;12.20;4.82;;;;;;;5.51;92.31;100398.22;4999638;28;20050;-83
2020/12/14 00:16:31;;;;;;;9.30;4.63;;;;;;;5.47;93.48;100392.34;4989365;28;20049;-84
2020/12/14 00:18:56;;;;;;;7.53;4.85;;;;;;;5.46;94.43;100384.47;4990560;28;20072;-85
2020/12/14 00:21:22;;;;;;;13.45;4.95;;;;;;;5.40;95.39;100393.88;4981957;28;20095;-83
2020/12/14 00:23:47;;;;;;;10.40;4.85;;;;;;;5.36;95.94;100390.66;5002388;28;20053;-84
2020/12/14 00:26:14;;;;;;;10.55;4.82;;;;;;;5.30;97.46;100390.38;4985716;28;20112;-87
2020/12/14 00:28:39;;;;;;;16.33;5.78;;;;;;;5.28;97.95;100392.31;4990771;28;20045;-85
2020/12/14 00:31:04;;;;;;;8.65;4.53;;;;;;;5.25;97.75;100393.44;5007589;28;20050;-84
2020/12/14 00:33:30;;;;;;;12.52;5.38;;;;;;;5.26;98.26;100388.97;4973092;28;20043;-88
2020/12/14 00:35:55;;;;;;;12.55;4.90;;;;;;;5.24;98.20;100380.31;4974532;28;20104;-85
2020/12/14 00:38:21;;;;;;;10.98;5.07;;;;;;;5.21;98.13;100381.41;4988544;28;20120;-86
2020/12/14 00:40:46;;;;;;;8.98;4.40;;;;;;;5.19;98.40;100372.72;4991333;28;20046;-84
2020/12/14 00:43:12;;;;;;;13.10;5.13;;;;;;;5.22;98.36;100377.75;4996159;28;20129;-87
2020/12/14 00:45:37;;;;;;;11.77;5.10;;;;;;;5.22;98.85;100363.63;4988337;28;20238;-85
2020/12/14 00:48:02;;;;;;;10.85;5.35;;;;;;;5.19;99.39;100356.75;4975242;28;20045;-87
2020/12/14 00:50:28;;;;;;;11.63;4.88;;;;;;;5.18;99.03;100363.91;4987636;28;20070;-85
2020/12/14 00:52:53;;;;;;;12.27;5.93;;;;;;;5.18;98.82;100353.28;4987429;28;20551;-88
2020/12/14 00:55:19;;;;;;;12.57;5.20;;;;;;;5.20;98.52;100345.97;4991525;28;20044;-85
2020/12/14 00:57:44;;;;;;;11.80;5.15;;;;;;;5.22;98.53;100342.34;4993536;28;20045;-85
2020/12/14 01:00:09;;;;;;;9.57;4.22;;;;;;;5.22;98.04;100339.69;4986330;28;20058;-83
2020/12/14 01:02:35;;;;;;;13.75;5.43;;;;;;;5.22;97.91;100343.19;5012125;28;20183;-83
2020/12/14 01:05:00;;;;;;;8.88;4.80;;;;;;;5.23;97.50;100336.03;5004425;28;20491;-84
2020/12/14 01:07:25;;;;;;;10.77;5.32;;;;;;;5.25;96.98;100329.59;4995502;28;20057;-85
2020/12/14 01:09:51;;;;;;;8.38;4.90;;;;;;;5.25;96.44;100321.63;5011135;28;20120;-83
2020/12/14 01:12:16;;;;;;;7.72;5.00;;;;;;;5.27;96.09;100317.00;4997346;28;20824;-85
2020/12/14 01:14:41;;;;;;;9.90;5.00;;;;;;;5.29;95.79;100322.16;4996116;28;20058;-83
2020/12/14 01:17:07;;;;;;;9.45;4.78;;;;;;;5.29;95.76;100319.50;5009010;28;20062;-82
2020/12/14 01:19:32;;;;;;;9.45;4.78;;;;;;;5.29;95.32;100325.66;4994472;28;20088;-87
2020/12/14 01:21:57;;;;;;;8.32;4.68;;;;;;;5.28;94.70;100304.53;4993601;28;20053;-85
2020/12/14 01:24:23;;;;;;;10.05;4.97;;;;;;;5.31;94.78;100306.91;4979966;28;20128;-86
2020/12/14 01:26:48;;;;;;;6.65;4.20;;;;;;;5.31;93.91;100317.53;5008942;28;20037;-86
2020/12/14 01:29:13;;;;;;;9.07;4.18;;;;;;;5.33;93.87;100342.19;4990551;28;20033;-87
2020/12/14 01:31:40;;;;;;;10.07;4.13;;;;;;;5.35;93.77;100345.53;4991350;28;20046;-87
2020/12/14 01:34:05;;;;;;;10.30;5.10;;;;;;;5.38;93.56;100350.56;4973142;28;20043;-87
2020/12/14 01:36:30;;;;;;;9.45;4.00;;;;;;;5.39;93.38;100352.28;4975159;28;20133;-86
2020/12/14 01:38:56;;;;;;;10.10;4.55;;;;;;;5.40;93.00;100340.63;4973313;28;20042;-85
2020/12/14 01:41:21;;;;;;;9.10;4.25;;;;;;;5.39;92.62;100331.00;4989311;28;20042;-84
2020/12/14 01:43:47;;;;;;;8.68;4.22;;;;;;;5.41;92.23;100339.69;4992262;28;20041;-85
2020/12/14 01:46:13;;;;;;;8.82;4.03;;;;;;;5.43;92.52;100335.03;4987685;28;20076;-83
2020/12/14 01:48:39;;;;;;;9.23;4.15;;;;;;;5.46;92.15;100341.91;5006580;28;20073;-86
2020/12/14 01:51:04;;;;;;;8.38;4.13;;;;;;;5.46;91.67;100340.06;4991864;28;20062;-86
2020/12/14 01:53:33;;;;;;;7.07;3.63;;;;;;;5.47;91.64;100336.44;4990350;28;20050;-87
2020/12/14 01:56:02;;;;;;;8.35;4.18;;;;;;;5.49;91.69;100339.78;4990328;28;20125;-85
2020/12/14 01:58:28;;;;;;;7.18;3.63;;;;;;;5.50;91.27;100336.16;5003087;28;20030;-84
2020/12/14 02:00:53;;;;;;;8.38;3.78;;;;;;;5.52;90.75;100331.50;4989514;28;20658;-89
2020/12/14 02:03:19;;;;;;;9.00;3.78;;;;;;;5.53;90.74;100322.56;4983634;28;20085;-83
2020/12/14 02:05:44;;;;;;;9.88;3.50;;;;;;;5.53;90.45;100327.88;4989074;28;20054;-85
2020/12/14 02:08:09;;;;;;;7.30;3.33;;;;;;;5.54;90.27;100318.06;4988916;28;20092;-82
2020/12/14 02:10:36;;;;;;;8.32;3.95;;;;;;;5.55;89.92;100320.59;4988882;28;20124;-83
2020/12/14 02:13:01;;;;;;;8.85;3.30;;;;;;;5.58;89.95;100315.00;4999958;28;20046;-82
2020/12/14 02:15:28;;;;;;;8.02;3.40;;;;;;;5.58;89.48;100308.81;4987701;28;20049;-84
2020/12/14 02:17:53;;;;;;;4.70;2.75;;;;;;;5.62;88.87;100321.69;5001817;28;20096;-89
2020/12/14 02:20:19;;;;;;;7.47;3.60;;;;;;;5.65;88.72;100324.06;4987737;28;20777;-86
2020/12/14 02:22:44;;;;;;;6.13;3.03;;;;;;;5.65;88.93;100320.56;4997182;28;20042;-87
2020/12/14 02:25:09;;;;;;;8.48;3.70;;;;;;;5.65;88.97;100320.56;4987872;28;20069;-86
2020/12/14 02:27:36;;;;;;;9.02;3.50;;;;;;;5.66;89.27;100315.09;5004451;28;20086;-85
2020/12/14 02:30:06;;;;;;;8.48;2.83;;;;;;;5.67;89.22;100307.97;4991025;28;20107;-84
2020/12/14 02:32:33;;;;;;;7.25;3.13;;;;;;;5.69;88.95;100299.81;4995297;28;20053;-83
2020/12/14 02:34:59;;;;;;;8.57;3.20;;;;;;;5.72;88.30;100281.72;4985508;28;20048;-85
2020/12/14 02:37:27;;;;;;;5.60;3.30;;;;;;;5.73;87.91;100288.75;4971601;28;20129;-82
2020/12/14 02:39:53;;;;;;;6.22;3.10;;;;;;;5.76;87.51;100295.59;4985917;28;20568;-85
2020/12/14 02:42:21;;;;;;;9.00;2.72;;;;;;;5.76;87.74;100288.47;5003463;28;20136;-88
2020/12/14 02:44:48;;;;;;;9.80;3.10;;;;;;;5.77;87.89;100287.47;4984586;28;20050;-86
2020/12/14 02:47:14;;;;;;;6.88;2.75;;;;;;;5.79;87.92;100290.81;4987635;28;20121;-82
2020/12/14 02:49:40;;;;;;;9.90;3.03;;;;;;;5.83;87.54;100288.69;4979823;28;20153;-83
2020/12/14 02:52:08;;;;;;;5.75;2.33;;;;;;;5.85;87.62;100286.75;4968532;28;20049;-86
2020/12/14 02:54:35;;;;;;;6.95;2.42;;;;;;;5.88;87.72;100291.78;4980606;28;20488;-84
2020/12/14 02:57:02;;;;;;;4.85;2.40;;;;;;;5.91;87.10;100285.31;5001523;28;20425;-84
2020/12/14 02:59:28;;;;;;;5.78;2.53;;;;;;;5.95;87.16;100284.91;4981282;28;20065;-87
2020/12/14 03:01:54;;;;;;;4.65;2.10;;;;;;;5.97;87.04;100284.75;4989294;28;20042;-85
2020/12/14 03:04:20;;;;;;;6.30;2.58;;;;;;;6.00;86.72;100277.31;4984720;28;20567;-87
2020/12/14 03:06:47;;;;;;;5.78;2.45;;;;;;;6.02;87.09;100283.34;4989574;28;20049;-87
2020/12/14 03:09:13;;;;;;;5.63;2.30;;;;;;;6.04;86.94;100289.38;5008784;28;20034;-82
2020/12/14 03:11:39;;;;;;;4.50;2.35;;;;;;;6.07;87.34;100285.53;5009662;28;20042;-85
2020/12/14 03:14:07;;;;;;;10.30;3.05;;;;;;;6.09;86.64;100279.06;4991693;28;20044;-81
2020/12/14 03:16:47;;;;;;;7.18;2.40;;;;;;;6.12;86.82;100274.44;4988402;28;20074;-85
2020/12/14 03:19:12;;;;;;;6.60;2.42;;;;;;;6.10;86.66;100267.47;4984555;28;20042;-81
2020/12/14 03:21:39;;;;;;;5.97;2.30;;;;;;;6.14;86.86;100267.16;4987023;28;20560;-86
2020/12/14 03:24:05;;;;;;;4.05;2.03;;;;;;;6.14;86.81;100262.66;4988011;28;20503;-84
2020/12/14 03:26:31;;;;;;;5.40;2.33;;;;;;;6.16;86.67;100266.03;4990227;28;20050;-87
2020/12/14 03:28:58;;;;;;;6.53;2.50;;;;;;;6.20;86.62;100261.22;4999658;28;20039;-88
2020/12/14 03:31:23;;;;;;;5.53;2.30;;;;;;;6.21;86.67;100261.06;5008302;28;20451;-86
2020/12/14 03:33:53;;;;;;;7.10;2.35;;;;;;;6.22;87.02;100264.59;4991641;28;20041;-86
2020/12/14 03:36:22;;;;;;;5.60;2.17;;;;;;;6.21;87.23;100252.25;4985882;28;20054;-85
2020/12/14 03:38:49;;;;;;;5.13;2.42;;;;;;;6.20;86.68;100251.41;4998783;28;20049;-85
2020/12/14 03:41:15;;;;;;;6.55;2.40;;;;;;;6.23;87.35;100260.94;5002878;28;20081;-83
2020/12/14 03:43:40;;;;;;;5.28;2.22;;;;;;;6.27;87.20;100262.31;4986327;28;20119;-85
2020/12/14 03:46:13;;;;;;;4.20;2.40;;;;;;;6.27;87.10;100256.97;4952804;28;20049;-85
2020/12/14 03:48:38;;;;;;;6.05;2.40;;;;;;;6.27;87.51;100251.63;5003463;28;20038;-86
2020/12/14 03:51:07;;;;;;;4.68;2.08;;;;;;;6.28;87.17;100243.50;4971094;28;20403;-82
2020/12/14 03:53:33;;;;;;;8.82;2.65;;;;;;;6.31;87.22;100248.53;4971866;28;20049;-85
2020/12/14 03:55:59;;;;;;;6.35;2.55;;;;;;;6.33;86.95;100251.91;4997027;28;20062;-87
2020/12/14 03:58:26;;;;;;;6.18;2.15;;;;;;;6.35;86.51;100246.41;4971889;28;20286;-82
2020/12/14 04:00:52;;;;;;;5.85;2.17;;;;;;;6.38;86.76;100248.75;4958189;28;20041;-86
2020/12/14 04:03:19;;;;;;;4.63;2.20;;;;;;;6.40;86.73;100254.78;4974638;28;20178;-83
2020/12/14 04:05:44;;;;;;;3.92;1.75;;;;;;;6.41;86.90;100272.44;5004401;28;20112;-86
2020/12/14 04:08:09;;;;;;;7.32;2.22;;;;;;;6.42;86.93;100255.50;4987415;28;20535;-82
2020/12/14 04:10:36;;;;;;;4.25;2.10;;;;;;;6.43;87.55;100254.50;4986447;28;20499;-83
2020/12/14 04:13:03;;;;;;;5.55;2.45;;;;;;;6.42;88.23;100255.50;4972670;28;20053;-83
2020/12/14 04:15:28;;;;;;;9.57;2.72;;;;;;;6.40;87.36;100252.13;4956809;28;20037;-88
2020/12/14 04:17:54;;;;;;;7.25;2.10;;;;;;;6.41;87.42;100259.13;5003616;28;20038;-84
2020/12/14 04:20:19;;;;;;;6.72;2.63;;;;;;;6.41;nan;100240.47;4984370;28;20054;-81
2020/12/14 04:22:47;;;;;;;4.20;1.95;;;;;;;6.39;88.88;100247.78;4994709;28;20405;-86
2020/12/14 04:25:17;;;;;;;6.18;2.20;;;;;;;6.36;89.73;100250.75;5001615;28;20042;-88
2020/12/14 04:27:43;;;;;;;7.40;2.55;;;;;;;6.32;90.29;100244.03;4987471;28;20462;-88
2020/12/14 04:30:09;;;;;;;5.97;2.10;;;;;;;6.29;90.28;100244.34;4989977;28;20427;-83
2020/12/14 04:32:36;;;;;;;7.38;2.38;;;;;;;6.29;90.40;100229.19;5001175;28;20065;-85
2020/12/14 04:35:02;;;;;;;5.10;1.88;;;;;;;6.31;90.28;100232.56;5000114;28;20046;-85
2020/12/14 04:37:28;;;;;;;6.40;2.55;;;;;;;6.33;89.67;100233.25;5004125;28;20513;-86
2020/12/14 04:39:53;;;;;;;5.80;2.20;;;;;;;6.36;89.33;100229.44;5001248;28;20129;-83
2020/12/14 04:42:19;;;;;;;7.13;2.03;;;;;;;6.37;89.19;100241.78;4972988;28;20065;-84
2020/12/14 04:44:45;;;;;;;5.03;1.70;;;;;;;6.38;89.15;100240.78;5008150;28;20045;-84
2020/12/14 04:47:13;;;;;;;4.88;2.00;;;;;;;6.37;89.40;100247.09;4991063;28;20046;-84
2020/12/14 04:49:41;;;;;;;5.65;2.03;;;;;;;6.38;89.89;100243.44;4975214;28;20542;-87
2020/12/14 04:52:07;;;;;;;5.20;2.17;;;;;;;6.38;90.49;100243.44;5006616;28;20527;-86
2020/12/14 04:54:33;;;;;;;4.43;1.98;;;;;;;6.36;91.04;100250.75;5005295;28;20062;-87
2020/12/14 04:57:10;;;;;;;6.40;2.15;;;;;;;6.33;91.60;100246.56;5002856;28;20076;-87
2020/12/14 04:59:36;;;;;;;7.65;2.10;;;;;;;6.31;91.54;100245.03;4972422;28;20053;-84
2020/12/14 05:02:11;;;;;;;10.90;2.67;;;;;;;6.31;92.13;100247.72;4984082;28;20372;-86
2020/12/14 05:04:37;;;;;;;4.82;2.30;;;;;;;6.30;92.09;100254.88;5004205;28;20121;-84
2020/12/14 05:07:03;;;;;;;7.18;2.30;;;;;;;6.30;92.01;100246.00;4986293;28;20038;-83
2020/12/14 05:09:29;;;;;;;5.10;2.30;;;;;;;6.32;92.35;100260.03;5003733;28;20049;-85
2020/12/14 05:11:54;;;;;;;4.50;2.15;;;;;;;6.30;92.55;100256.66;4995248;28;20029;-87
2020/12/14 05:14:22;;;;;;;5.28;2.22;;;;;;;6.29;93.42;100252.34;4993825;28;20063;-84
2020/12/14 05:16:50;;;;;;;8.85;2.95;;;;;;;6.25;94.79;100240.31;5003310;28;20046;-82
2020/12/14 05:19:17;;;;;;;6.47;2.25;;;;;;;6.22;95.14;100232.63;4986110;28;20046;-82
2020/12/14 05:21:54;;;;;;;7.43;2.53;;;;;;;6.20;95.48;100237.25;5006574;28;20038;-83
2020/12/14 05:24:27;;;;;;;4.90;2.30;;;;;;;6.21;95.65;100230.94;4987240;28;20049;-83
2020/12/14 05:26:54;;;;;;;4.43;2.47;;;;;;;6.21;96.21;100231.75;4998226;28;20128;-84
2020/12/14 05:29:27;;;;;;;5.05;2.38;;;;;;;6.20;96.65;100223.94;4987889;28;20037;-85
2020/12/14 05:32:00;;;;;;;8.18;2.20;;;;;;;6.18;96.79;100226.72;4997915;28;20053;-81
2020/12/14 05:34:34;;;;;;;9.43;2.60;;;;;;;6.17;97.30;100233.06;5000983;28;20061;-82
2020/12/14 05:37:01;;;;;;;6.97;2.53;;;;;;;6.18;97.48;100241.88;4989855;28;20034;-85
2020/12/14 05:39:29;;;;;;;6.55;2.45;;;;;;;6.19;97.58;100239.09;4999534;28;20142;-85
2020/12/14 05:42:12;;;;;;;6.13;2.90;;;;;;;6.20;97.38;100219.44;5005266;28;20311;-84
2020/12/14 05:44:38;;;;;;;4.80;2.40;;;;;;;6.22;97.08;100224.63;4948269;28;20409;-82
2020/12/14 05:47:21;;;;;;;6.43;2.35;;;;;;;6.24;96.93;100236.81;4991159;28;20056;-86
2020/12/14 05:49:46;;;;;;;4.13;2.35;;;;;;;6.28;96.90;100234.69;5006807;28;20484;-84
2020/12/14 05:52:17;;;;;;;6.80;2.65;;;;;;;6.32;96.24;100226.22;4990680;28;20054;-86
2020/12/14 05:54:50;;;;;;;6.60;2.63;;;;;;;6.36;96.26;100233.91;4989923;28;20035;-85
2020/12/14 05:57:33;;;;;;;6.60;2.47;;;;;;;6.38;95.78;100223.94;4990607;28;20042;-87
2020/12/14 06:00:02;;;;;;;4.88;2.10;;;;;;;6.41;95.04;100227.13;5004635;28;20038;-81
2020/12/14 06:02:27;;;;;;;;;;;;;;;6.45;95.09;100217.88;4968217;28;20092;-84
2020/12/14 06:04:57;;;;;;;5.30;2.25;;;;;;;6.43;95.02;100219.00;5009844;28;19914;-84
2020/12/14 06:07:25;;;;;;;6.03;2.20;;;;;;;6.45;94.84;100217.88;5009113;28;20515;-87
2020/12/14 06:10:11;;;;;;;5.03;2.38;;;;;;;6.51;94.44;100211.94;4992683;28;20366;-86
2020/12/14 06:12:42;;;;;;;4.72;1.90;;;;;;;6.56;94.16;100222.16;5003989;28;20050;-84
2020/12/14 06:15:11;;;;;;;6.65;2.28;;;;;;;6.59;94.19;100212.97;5005971;28;20038;-83
2020/12/14 06:17:39;;;;;;;5.25;1.95;;;;;;;6.61;94.35;100205.69;5009597;28;20104;-86
2020/12/14 06:20:11;;;;;;;5.38;2.55;;;;;;;6.62;94.36;100210.88;5003645;28;20049;-85
2020/12/14 06:22:39;;;;;;;4.97;2.38;;;;;;;6.64;94.54;100202.69;4972157;28;20358;-84
2020/12/14 06:25:06;;;;;;;4.85;1.83;;;;;;;6.66;94.71;100198.06;4992474;28;20042;-85
2020/12/14 06:27:31;;;;;;;4.57;1.70;;;;;;;6.67;94.76;100199.72;4992707;28;20038;-83
2020/12/14 06:29:57;;;;;;;6.20;2.50;;;;;;;6.68;94.91;100209.44;4988654;28;20584;-83
2020/12/14 06:32:39;;;;;;;7.63;3.65;;;;;;;6.69;94.78;100200.44;5003759;28;20041;-87
2020/12/14 06:35:13;;;;;;;3.90;2.67;;;;;;;6.69;94.96;100197.75;4987532;28;20091;-84
2020/12/14 06:37:53;;;;;;;6.32;2.53;;;;;;;6.71;94.82;100206.44;5000226;28;20038;-83
2020/12/14 06:40:20;;;;;;;4.55;2.45;;;;;;;6.72;94.83;100202.78;5007420;28;20541;-84
2020/12/14 06:42:46;;;;;;;5.72;2.42;;;;;;;6.75;95.07;100210.47;4993136;28;20065;-85
2020/12/14 06:45:12;;;;;;;4.35;2.38;;;;;;;6.78;94.89;100204.81;4992069;28;20041;-85
2020/12/14 06:47:44;;;;;;;4.38;2.22;;;;;;;6.81;94.49;100211.69;4992204;28;20038;-85
2020/12/14 06:50:22;;;;;;;6.13;2.67;;;;;;;6.83;94.80;100215.88;4989709;28;20026;-85
2020/12/14 06:52:47;;;;;;;5.18;2.80;;;;;;;6.83;94.62;100215.88;5006189;28;20048;-88
2020/12/14 06:55:12;;;;;;;6.70;2.60;;;;;;;6.83;95.06;100215.88;4977428;28;20037;-84
2020/12/14 06:57:39;;;;;;;7.53;2.33;;;;;;;6.84;95.16;100214.03;5003721;28;20041;-87
2020/12/14 07:00:06;;;;;;;4.22;2.10;;;;;;;6.87;94.68;100219.91;4988691;28;20518;-85
2020/12/14 07:02:39;;;;;;;4.22;2.15;;;;;;;6.89;94.53;100212.59;4985915;28;20038;-84
2020/12/14 07:05:30;;;;;;;4.60;2.10;;;;;;;6.90;94.76;100216.91;4998612;28;20045;-85
2020/12/14 07:07:56;;;;;;;5.03;2.53;;;;;;;6.91;94.94;100215.13;4999656;28;20507;-86
2020/12/14 07:10:29;;;;;;;5.65;2.50;;;;;;;6.94;94.29;100223.63;5004919;28;20060;-85
2020/12/14 07:12:56;;;;;;;3.60;1.80;;;;;;;6.96;94.12;100212.81;5002743;28;20034;-83
2020/12/14 07:15:32;;;;;;;3.90;2.42;;;;;;;6.99;94.34;100202.69;4990230;28;20080;-84
2020/12/14 07:18:03;;;;;;;5.03;2.50;;;;;;;7.01;94.14;100222.00;4998610;28;20037;-86
2020/12/14 07:20:29;;;;;;;4.05;1.90;;;;;;;7.06;94.17;100234.06;4985998;28;20041;-86
2020/12/14 07:23:01;;;;;;;6.22;2.00;;;;;;;7.08;94.06;100232.06;5010313;28;20499;-85
2020/12/14 07:25:26;;;;;;;3.97;1.92;;;;;;;7.09;94.20;100226.59;5003585;28;20117;-86
2020/12/14 07:27:52;;;;;;;3.45;1.80;;;;;;;7.11;93.91;100239.78;4992060;28;20563;-82
2020/12/14 07:30:21;;;;;;;4.50;1.70;;;;;;;7.14;94.75;100224.28;5008513;28;20037;-86
2020/12/14 07:32:47;;;;;;;3.80;2.03;;;;;;;7.17;94.81;100239.16;4988525;28;20077;-84
2020/12/14 07:35:13;;;;;;;4.65;1.80;;;;;;;7.15;94.85;100233.97;4965447;28;20041;-86
2020/12/14 07:37:42;;;;;;;5.18;2.03;;;;;;;7.14;94.84;100234.13;5003096;28;20046;-83
2020/12/14 07:40:08;;;;;;;4.70;2.38;;;;;;;7.15;94.86;100235.81;5007353;28;20945;-86
2020/12/14 07:42:46;;;;;;;4.35;2.35;;;;;;;7.13;95.36;100251.94;4992283;28;20115;-85
2020/12/14 07:45:13;;;;;;;6.68;2.78;;;;;;;7.15;95.57;100257.16;5004737;28;20057;-86
2020/12/14 07:47:40;;;;;;;6.85;2.90;;;;;;;7.14;97.56;100261.66;4985152;28;20396;-85
2020/12/14 07:50:26;;;;;;;6.80;2.67;;;;;;;7.13;98.88;100253.78;4973996;28;20448;-83
2020/12/14 07:52:55;;;;;;;7.28;2.80;;;;;;;7.11;98.77;100247.78;4989217;28;20133;-85
2020/12/14 07:55:24;;;;;;;;;;;;;;;7.05;99.71;100246.56;4999725;28;20046;-87
2020/12/14 07:57:50;;;;;;;7.55;2.75;;;;;;;6.95;100.00;100240.47;5009120;28;19913;-87
2020/12/14 08:00:20;;;;;;;5.05;2.80;;;;;;;6.94;100.00;100262.81;4983019;28;20034;-86
2020/12/14 08:02:46;;;;;;;5.55;3.30;;;;;;;6.92;100.00;100235.44;5003189;28;20443;-84
2020/12/14 08:05:17;;;;;;;5.63;2.80;;;;;;;6.93;100.00;100253.13;5004252;28;20049;-84
2020/12/14 08:07:50;;;;;;;4.80;2.80;;;;;;;6.93;100.00;100251.31;5007491;28;20081;-86
2020/12/14 08:10:18;;;;;;;6.60;3.00;;;;;;;6.92;100.00;100254.97;4995974;28;20037;-82
2020/12/14 08:12:44;;;;;;;7.43;3.05;;;;;;;6.91;100.00;100255.97;4990260;28;20036;-87
2020/12/14 08:15:18;;;;;;;4.88;3.20;;;;;;;6.91;100.00;100253.28;4985880;28;20030;-84
2020/12/14 08:17:45;;;;;;;5.45;3.30;;;;;;;6.93;100.00;100261.13;5003498;28;20061;-85
2020/12/14 08:20:30;;;;;;;5.20;2.67;;;;;;;6.94;100.00;100258.31;5007185;28;20037;-85
2020/12/14 08:22:58;;;;;;;5.63;3.28;;;;;;;6.94;100.00;100266.31;5006191;28;20038;-84
2020/12/14 08:25:28;;;;;;;5.43;3.22;;;;;;;6.95;100.00;100265.31;5013156;28;20069;-83
2020/12/14 08:28:01;;;;;;;6.18;3.72;;;;;;;6.95;100.00;100267.97;4995883;28;20526;-83
2020/12/14 08:30:27;;;;;;;4.95;3.42;;;;;;;6.97;100.00;100270.50;4997498;28;20074;-85
2020/12/14 08:33:09;;;;;;;7.63;3.75;;;;;;;6.95;100.00;100262.66;5012173;28;20045;-88
2020/12/14 08:35:36;;;;;;;7.35;3.30;;;;;;;6.95;100.00;100259.97;4994121;28;20442;-84
2020/12/14 08:38:04;;;;;;;6.70;3.30;;;;;;;6.96;100.00;100283.03;5010966;28;20041;-84
2020/12/14 08:40:32;;;;;;;5.28;3.08;;;;;;;6.98;100.00;100285.53;4989638;28;20061;-83
2020/12/14 08:43:13;;;;;;;5.68;3.17;;;;;;;6.98;100.00;100278.34;4992967;28;20496;-86
2020/12/14 08:45:57;;;;;;;5.40;3.35;;;;;;;6.99;100.00;100284.50;4964365;28;20050;-86
2020/12/14 08:48:31;;;;;;;7.05;4.75;;;;;;;6.99;100.00;100284.50;5003265;28;20673;-87
2020/12/14 08:51:14;;;;;;;6.38;3.95;;;;;;;7.02;100.00;100284.25;4987530;28;20041;-86
2020/12/14 08:53:41;;;;;;;6.43;4.15;;;;;;;7.03;100.00;100279.75;5002184;28;20069;-86
2020/12/14 08:56:09;;;;;;;7.60;4.30;;;;;;;7.05;100.00;100283.06;4999909;28;20042;-83
2020/12/14 08:58:52;;;;;;;7.25;4.60;;;;;;;7.09;100.00;100273.78;4989318;28;20484;-88
2020/12/14 09:01:20;;;;;;;8.20;4.90;;;;;;;7.11;100.00;100285.97;5005292;28;20058;-84
2020/12/14 09:03:53;;;;;;;7.50;4.22;;;;;;;7.15;100.00;100289.16;4988979;28;20054;-84
2020/12/14 09:06:22;;;;;;;7.40;4.20;;;;;;;7.19;100.00;100290.53;5008923;28;20045;-85
2020/12/14 09:09:03;;;;;;;;;;;;;;;7.22;100.00;100290.22;5004202;28;20034;-86
2020/12/14 09:11:30;;;;;;;9.98;4.78;;;;;;;7.17;100.00;100295.19;4961589;28;19969;-84
2020/12/14 09:13:58;;;;;;;10.57;5.00;;;;;;;7.19;100.00;100303.88;4989346;28;20385;-85
2020/12/14 09:16:24;;;;;;;8.50;5.35;;;;;;;7.22;100.00;100308.91;4986182;28;20077;-84
2020/12/14 09:18:51;;;;;;;9.65;4.75;;;;;;;7.23;100.00;100307.91;4999229;28;20496;-89
2020/12/14 09:21:17;;;;;;;7.07;4.93;;;;;;;7.25;100.00;100311.28;4998221;28;20042;-86
2020/12/14 09:23:43;;;;;;;10.40;5.20;;;;;;;7.25;100.00;100316.63;4991447;28;20076;-83
2020/12/14 09:26:20;;;;;;;9.00;4.88;;;;;;;7.27;100.00;100317.28;4990217;28;20038;-85
2020/12/14 09:28:49;;;;;;;10.95;6.13;;;;;;;7.28;100.00;100320.78;5006606;28;20513;-86
2020/12/14 09:31:16;;;;;;;8.60;6.10;;;;;;;7.29;100.00;100319.81;5007659;28;20547;-85
2020/12/14 09:33:41;;;;;;;6.22;5.18;;;;;;;7.30;100.00;100316.13;5003921;28;20042;-84
2020/12/14 09:36:14;;;;;;;9.27;6.60;;;;;;;7.33;100.00;100330.00;5001022;28;20034;-83
2020/12/14 09:38:41;;;;;;;11.18;7.03;;;;;;;7.35;100.00;100344.03;4997775;28;20136;-86
2020/12/14 09:41:07;;;;;;;10.93;7.18;;;;;;;7.35;100.00;100330.69;4971749;28;20484;-84
2020/12/14 09:43:32;;;;;;;9.80;7.80;;;;;;;7.37;100.00;100342.06;5002900;28;20042;-83
2020/12/14 09:46:00;;;;;;;12.77;9.50;;;;;;;7.41;100.00;100346.09;4999184;28;20041;-86
2020/12/14 09:48:28;;;;;;;14.18;10.70;;;;;;;7.43;100.00;100346.78;4989361;28;20038;-84
2020/12/14 09:50:57;;;;;;;12.47;9.93;;;;;;;7.48;100.00;100341.00;4989268;28;20031;-82
2020/12/14 09:53:23;;;;;;;14.13;11.37;;;;;;;7.50;100.00;100336.31;5000800;28;20335;-82
2020/12/14 09:55:48;;;;;;;14.13;11.43;;;;;;;7.51;100.00;100353.16;4996119;28;20073;-83
2020/12/14 09:58:15;;;;;;;16.60;11.93;;;;;;;7.53;100.00;100356.53;4975482;28;20061;-85
2020/12/14 10:00:42;;;;;;;13.18;10.52;;;;;;;7.53;100.00;100357.34;4989909;28;20038;-83
2020/12/14 10:03:07;;;;;;;12.85;10.65;;;;;;;7.54;100.00;100368.88;4976579;28;20034;-84
2020/12/14 10:05:32;;;;;;;13.27;9.90;;;;;;;7.56;100.00;100353.53;5010691;28;20108;-84
2020/12/14 10:07:58;;;;;;;14.32;10.77;;;;;;;7.58;100.00;100354.25;4990916;28;20048;-83
2020/12/14 10:10:25;;;;;;;12.20;10.77;;;;;;;7.59;100.00;100356.72;4955987;28;20038;-87
2020/12/14 10:12:58;;;;;;;13.23;10.82;;;;;;;7.62;100.00;100336.91;4989557;28;20046;-83
2020/12/14 10:15:24;;;;;;;12.15;9.50;;;;;;;7.65;100.00;100355.28;4988550;28;20085;-87
2020/12/14 10:17:50;;;;;;;11.85;10.43;;;;;;;7.67;100.00;100342.63;4976372;28;20033;-82
2020/12/14 10:20:16;;;;;;;13.07;10.68;;;;;;;7.70;100.00;100347.63;4993516;28;20046;-87
2020/12/14 10:22:42;;;;;;;10.43;9.35;;;;;;;7.72;100.00;100342.16;4973648;28;20074;-84
2020/12/14 10:25:08;;;;;;;12.75;9.52;;;;;;;7.74;100.00;100354.38;4988303;28;20050;-83
2020/12/14 10:27:34;;;;;;;10.00;8.02;;;;;;;7.75;100.00;100348.03;4991525;28;20050;-86
2020/12/14 10:30:00;;;;;;;9.68;8.10;;;;;;;7.76;100.00;100360.38;4984617;28;20034;-83
2020/12/14 10:32:28;;;;;;;9.75;8.15;;;;;;;7.78;100.00;100355.72;4988811;28;20049;-85
2020/12/14 10:34:56;;;;;;;12.65;9.50;;;;;;;7.79;100.00;100360.06;4970892;28;20092;-84
2020/12/14 10:37:23;;;;;;;13.83;9.20;;;;;;;7.78;100.00;100361.06;4987598;28;20064;-84
2020/12/14 10:39:53;;;;;;;11.85;8.52;;;;;;;7.79;100.00;100364.56;4990250;28;20069;-85
2020/12/14 10:42:19;;;;;;;12.85;8.43;;;;;;;7.80;100.00;100360.91;5009229;28;20128;-84
2020/12/14 10:44:44;;;;;;;12.27;9.88;;;;;;;7.81;100.00;100363.41;4993992;28;20441;-86
2020/12/14 10:47:09;;;;;;;12.80;9.93;;;;;;;7.81;100.00;100370.59;4980385;28;20038;-82
2020/12/14 10:49:37;;;;;;;15.23;9.10;;;;;;;7.81;100.00;100371.44;4988961;28;20042;-85
2020/12/14 10:52:03;;;;;;;12.80;9.48;;;;;;;7.82;100.00;100359.72;4974431;28;20132;-85
2020/12/14 10:54:29;;;;;;;13.63;10.30;;;;;;;7.83;100.00;100365.94;4999069;28;20033;-84
2020/12/14 10:56:56;;;;;;;12.43;10.05;;;;;;;7.85;100.00;100362.13;4983563;28;20042;-85
2020/12/14 10:59:22;;;;;;;13.05;11.57;;;;;;;7.86;100.00;100363.78;4997656;28;20088;-84
2020/12/14 11:01:51;;;;;;;13.63;10.77;;;;;;;7.87;100.00;100362.78;5003429;28;20048;-83
2020/12/14 11:04:18;;;;;;;12.77;11.45;;;;;;;7.88;100.00;100367.16;4991189;28;20096;-84
2020/12/14 11:06:44;;;;;;;15.18;10.57;;;;;;;7.88;100.00;100360.94;4970890;28;20659;-86
2020/12/14 11:09:11;;;;;;;13.15;11.40;;;;;;;7.89;100.00;100362.63;4997812;28;20134;-85
2020/12/14 11:11:42;;;;;;;13.93;10.60;;;;;;;7.91;100.00;100361.50;4999951;28;20054;-86
2020/12/14 11:14:08;;;;;;;14.80;11.32;;;;;;;7.93;100.00;100360.47;4986829;28;20048;-85
2020/12/14 11:16:39;;;;;;;12.43;11.00;;;;;;;7.96;100.00;100362.84;4963685;28;20050;-84
2020/12/14 11:19:11;;;;;;;15.07;10.15;;;;;;;8.00;100.00;100369.53;4997806;28;20042;-85
2020/12/14 11:21:37;;;;;;;16.02;10.68;;;;;;;8.01;100.00;100355.19;4984199;28;20559;-86
2020/12/14 11:24:04;;;;;;;12.98;11.02;;;;;;;8.05;100.00;100368.06;4986569;28;20038;-83
2020/12/14 11:26:31;;;;;;;13.85;10.75;;;;;;;8.09;100.00;100360.59;4993820;28;20052;-85
2020/12/14 11:28:57;;;;;;;14.25;11.75;;;;;;;8.12;100.00;100360.28;4983064;28;20037;-84
2020/12/14 11:31:37;;;;;;;13.88;10.90;;;;;;;8.14;100.00;100356.44;4971764;28;22438;-82
2020/12/14 11:34:02;;;;;;;13.35;10.82;;;;;;;8.19;100.00;100357.78;4989236;28;20057;-86